createdAt,value
2018-11-03T00:03:34.103Z,15.90
2018-11-03T00:08:56.242Z,17.17
2018-11-03T00:14:18.364Z,16.67
2018-11-03T00:19:40.489Z,17.10
2018-11-03T00:25:02.438Z,14.67
2018-11-03T00:30:24.498Z,15.47
2018-11-03T00:35:46.373Z,21.40
2018-11-03T00:41:08.485Z,19.07
2018-11-03T00:46:30.362Z,20.10
2018-11-03T00:51:52.570Z,16.93
2018-11-03T00:57:14.498Z,17.93
2018-11-03T01:02:36.561Z,14.27
2018-11-03T01:07:59.666Z,19.87
2018-11-03T01:13:21.464Z,17.07
2018-11-03T01:18:43.630Z,16.10
2018-11-03T01:24:05.411Z,17.17
2018-11-03T01:29:27.643Z,16.33
2018-11-03T01:34:49.426Z,16.33
2018-11-03T01:40:12.690Z,18.23
2018-11-03T01:45:34.915Z,17.70
2018-11-03T01:50:57.073Z,16.67
2018-11-03T01:56:18.926Z,17.87
2018-11-03T02:01:41.193Z,17.50
2018-11-03T02:07:03.059Z,20.27
2018-11-03T02:12:25.160Z,16.60
2018-11-03T02:17:46.901Z,17.77
2018-11-03T02:23:09.018Z,15.03
2018-11-03T02:28:30.810Z,17.50
2018-11-03T02:33:52.594Z,15.73
2018-11-03T02:39:14.641Z,20.20
2018-11-03T02:44:36.547Z,17.10
2018-11-03T02:49:58.750Z,16.67
2018-11-03T02:55:20.642Z,18.20
2018-11-03T03:00:43.013Z,18.63
2018-11-03T03:06:05.086Z,16.77
2018-11-03T03:11:27.222Z,15.03
2018-11-03T03:16:49.073Z,18.43
2018-11-03T03:22:10.650Z,15.47
2018-11-03T03:27:32.797Z,15.27
2018-11-03T03:32:54.555Z,14.97
2018-11-03T03:38:16.949Z,13.90
2018-11-03T03:43:39.297Z,14.27
2018-11-03T03:49:01.125Z,15.33
2018-11-03T03:54:22.894Z,15.27
2018-11-03T03:59:45.167Z,16.70
2018-11-03T04:05:06.972Z,14.20
2018-11-03T04:10:29.293Z,13.70
2018-11-03T04:15:51.126Z,14.83
2018-11-03T04:21:17.358Z,15.90
2018-11-03T04:26:39.705Z,15.87
2018-11-03T04:32:02.007Z,16.97
2018-11-03T04:37:23.903Z,15.47
2018-11-03T04:42:46.265Z,19.00
2018-11-03T04:48:08.042Z,17.43
2018-11-03T04:53:30.125Z,15.73
2018-11-03T04:58:52.212Z,13.20
2018-11-03T05:04:14.491Z,12.93
2018-11-03T05:09:36.345Z,15.10
2018-11-03T05:14:58.619Z,14.00
2018-11-03T05:20:20.417Z,15.43
2018-11-03T05:25:42.605Z,15.87
2018-11-03T05:31:04.688Z,8.10
2018-11-03T05:36:26.842Z,3.73
2018-11-03T05:41:49.978Z,9.67
2018-11-03T05:47:11.912Z,8.80
2018-11-03T05:52:33.925Z,7.70
2018-11-03T05:57:55.852Z,5.37
2018-11-03T06:03:17.988Z,2.37
2018-11-03T06:08:39.875Z,0.90
2018-11-03T06:14:02.001Z,1.20
2018-11-03T06:19:23.890Z,1.00
2018-11-03T06:24:45.993Z,0.80
2018-11-03T06:30:09.553Z,0.83
2018-11-03T06:35:31.707Z,0.90
2018-11-03T06:40:53.681Z,0.60
2018-11-03T06:46:15.929Z,1.00
2018-11-03T06:51:37.885Z,1.13
2018-11-03T06:56:59.911Z,1.00
2018-11-03T07:02:21.615Z,1.27
2018-11-03T07:07:43.906Z,1.33
2018-11-03T07:13:05.868Z,1.47
2018-11-03T07:18:27.979Z,1.33
2018-11-03T07:23:50.073Z,1.17
2018-11-03T07:29:12.177Z,1.20
2018-11-03T07:34:34.082Z,1.40
2018-11-03T07:39:56.153Z,1.50
2018-11-03T07:45:18.057Z,1.40
2018-11-03T07:50:40.129Z,1.40
2018-11-03T07:56:02.113Z,1.40
2018-11-03T08:01:24.257Z,1.43
2018-11-03T08:06:46.126Z,1.67
2018-11-03T08:12:08.234Z,1.37
2018-11-03T08:17:30.030Z,1.40
2018-11-03T08:22:51.784Z,1.77
2018-11-03T08:28:15.970Z,1.20
2018-11-03T08:33:38.053Z,1.37
2018-11-03T08:39:00.156Z,1.37
2018-11-03T08:44:22.253Z,1.23
2018-11-03T08:49:44.149Z,1.10
2018-11-03T08:55:06.582Z,0.83
2018-11-03T09:00:28.512Z,1.23
2018-11-03T09:05:50.693Z,1.13
2018-11-03T09:11:12.441Z,1.20
2018-11-03T09:16:35.296Z,1.20
2018-11-03T09:21:57.424Z,0.97
2018-11-03T09:27:20.881Z,1.20
2018-11-03T09:32:42.858Z,1.00
2018-11-03T09:38:05.101Z,1.30
2018-11-03T09:43:26.943Z,1.00
2018-11-03T09:48:49.029Z,1.30
2018-11-03T09:54:11.186Z,1.03
2018-11-03T09:59:33.188Z,1.03
2018-11-03T10:05:00.601Z,1.37
2018-11-03T10:10:23.518Z,1.30
2018-11-03T10:15:46.019Z,2.10
2018-11-03T10:21:07.973Z,1.60
2018-11-03T10:26:30.166Z,1.43
2018-11-03T10:31:51.960Z,1.90
2018-11-03T10:37:14.442Z,1.57
2018-11-03T10:42:36.153Z,1.90
2018-11-03T10:47:58.275Z,1.67
2018-11-03T10:53:20.138Z,1.37
2018-11-03T10:58:42.280Z,1.43
2018-11-03T11:04:08.896Z,1.53
2018-11-03T11:09:36.195Z,1.73
2018-11-03T11:14:58.549Z,1.63
2018-11-03T11:20:20.309Z,1.53
2018-11-03T11:25:42.518Z,1.63
2018-11-03T11:31:04.604Z,1.93
2018-11-03T11:36:26.718Z,1.70
2018-11-03T11:41:48.686Z,1.60
2018-11-03T11:47:10.840Z,2.10
2018-11-03T11:52:32.737Z,1.80
2018-11-03T11:57:54.822Z,1.80
2018-11-03T12:03:16.608Z,1.50
2018-11-03T12:08:38.808Z,1.97
2018-11-03T12:14:00.923Z,1.70
2018-11-03T12:19:23.179Z,1.63
2018-11-03T12:24:45.179Z,1.53
2018-11-03T12:30:08.249Z,1.60
2018-11-03T12:35:30.324Z,1.87
2018-11-03T12:40:51.981Z,2.00
2018-11-03T12:46:14.379Z,1.70
2018-11-03T12:51:36.134Z,2.00
2018-11-03T12:56:58.238Z,2.10
2018-11-03T13:02:20.415Z,1.90
2018-11-03T13:07:43.991Z,1.60
2018-11-03T13:13:06.041Z,1.50
2018-11-03T13:18:28.382Z,1.60
2018-11-03T13:23:50.069Z,1.60
2018-11-03T13:29:17.258Z,1.90
2018-11-03T13:34:39.373Z,1.70
2018-11-03T13:40:01.322Z,1.73
2018-11-03T13:45:23.046Z,1.93
2018-11-03T13:50:45.205Z,1.80
2018-11-03T13:56:07.098Z,2.03
2018-11-03T14:01:30.046Z,1.87
2018-11-03T14:06:52.366Z,1.73
2018-11-03T14:12:14.067Z,1.77
2018-11-03T14:17:36.213Z,1.77
2018-11-03T14:22:58.382Z,1.83
2018-11-03T14:28:20.535Z,1.70
2018-11-03T14:33:42.444Z,2.00
2018-11-03T14:39:05.577Z,1.60
2018-11-03T14:44:27.596Z,1.73
2018-11-03T14:49:49.373Z,2.00
2018-11-03T14:55:12.449Z,2.17
2018-11-03T15:00:36.118Z,2.30
2018-11-03T15:05:57.969Z,1.50
2018-11-03T15:11:20.174Z,1.87
2018-11-03T15:16:41.970Z,1.83
2018-11-03T15:22:03.694Z,1.60
2018-11-03T15:27:26.618Z,1.90
2018-11-03T15:32:48.793Z,1.80
2018-11-03T15:38:10.659Z,1.87
2018-11-03T15:43:32.743Z,1.60
2018-11-03T15:48:54.619Z,2.00
2018-11-03T15:54:16.341Z,1.70
2018-11-03T15:59:38.698Z,1.87
2018-11-03T16:05:00.767Z,1.93
2018-11-03T16:10:22.797Z,1.57
2018-11-03T16:15:44.577Z,1.83
2018-11-03T16:21:06.947Z,2.00
2018-11-03T16:26:28.729Z,1.80
2018-11-03T16:31:51.789Z,2.37
2018-11-03T16:37:13.855Z,1.77
2018-11-03T16:42:35.643Z,2.00
2018-11-03T16:47:57.430Z,1.70
2018-11-03T16:53:19.467Z,1.97
2018-11-03T16:58:41.452Z,1.93
2018-11-03T17:04:04.036Z,2.00
2018-11-03T17:09:25.807Z,1.87
2018-11-03T17:14:48.069Z,1.97
2018-11-03T17:20:10.543Z,1.50
2018-11-03T17:25:32.626Z,1.77
2018-11-03T17:31:00.373Z,1.60
2018-11-03T17:36:23.198Z,1.80
2018-11-03T17:41:45.224Z,1.70
2018-11-03T17:47:07.317Z,2.10
2018-11-03T17:52:29.668Z,1.83
2018-11-03T17:57:51.492Z,1.60
2018-11-03T18:03:13.494Z,2.07
2018-11-03T18:08:35.327Z,2.27
2018-11-03T18:13:57.801Z,1.83
2018-11-03T18:19:21.057Z,1.90
2018-11-03T18:24:43.097Z,2.03
2018-11-03T18:30:06.017Z,2.20
2018-11-03T18:35:28.063Z,2.33
2018-11-03T18:40:50.583Z,1.93
2018-11-03T18:46:24.865Z,1.80
2018-11-03T18:51:53.177Z,1.77
2018-11-03T18:57:15.621Z,1.60
2018-11-03T19:02:37.847Z,1.57
2018-11-03T19:07:59.572Z,1.80
2018-11-03T19:13:23.569Z,1.70
2018-11-03T19:18:45.377Z,1.60
2018-11-03T19:24:07.554Z,1.50
2018-11-03T19:29:34.227Z,1.60
2018-11-03T19:34:56.333Z,1.60
2018-11-03T19:40:18.232Z,2.03
2018-11-03T19:45:55.801Z,1.60
2018-11-03T19:51:17.676Z,1.80
2018-11-03T19:56:39.715Z,2.00
2018-11-03T20:02:01.486Z,1.80
2018-11-03T20:07:23.686Z,2.03
2018-11-03T20:12:45.562Z,1.67
2018-11-03T20:18:07.862Z,1.87
2018-11-03T20:23:29.645Z,1.80
2018-11-03T20:28:52.648Z,1.90
2018-11-03T20:34:14.713Z,2.37
2018-11-03T20:39:36.492Z,2.13
2018-11-03T20:44:58.701Z,2.00
2018-11-03T20:50:21.989Z,1.93
2018-11-03T20:55:43.665Z,1.80
2018-11-03T21:01:06.090Z,2.07
2018-11-03T21:06:27.766Z,1.90
2018-11-03T21:11:49.765Z,2.47
2018-11-03T21:17:11.637Z,2.30
2018-11-03T21:22:34.578Z,2.10
2018-11-03T21:27:56.710Z,1.97
2018-11-03T21:33:18.705Z,2.03
2018-11-03T21:38:40.942Z,2.30
2018-11-03T21:44:02.698Z,2.17
2018-11-03T21:49:24.896Z,1.83
2018-11-03T21:54:46.954Z,2.27
2018-11-03T22:00:10.401Z,2.00
2018-11-03T22:05:32.319Z,2.63
2018-11-03T22:10:54.058Z,2.53
2018-11-03T22:16:16.386Z,2.30
2018-11-03T22:21:38.104Z,2.00
2018-11-03T22:27:00.301Z,2.00
2018-11-03T22:32:22.193Z,2.17
2018-11-03T22:37:44.456Z,1.73
2018-11-03T22:43:06.097Z,1.90
2018-11-03T22:48:27.930Z,2.60
2018-11-03T22:53:49.521Z,2.60
2018-11-03T22:59:11.680Z,1.50
2018-11-03T23:04:33.517Z,2.07
2018-11-03T23:09:55.877Z,2.10
2018-11-03T23:15:17.744Z,2.00
2018-11-03T23:20:39.914Z,2.40
2018-11-03T23:26:01.855Z,1.63
2018-11-03T23:31:24.493Z,2.20
2018-11-03T23:36:46.222Z,1.97
2018-11-03T23:42:07.885Z,2.20
2018-11-03T23:47:29.850Z,2.03
2018-11-03T23:52:51.674Z,1.90
2018-11-03T23:58:13.265Z,2.13
